createdAt,value
2022-09-25T00:01:29.762Z,1.40
2022-09-25T00:03:59.670Z,1.27
2022-09-25T00:06:29.055Z,1.40
2022-09-25T00:08:58.885Z,1.83
2022-09-25T00:11:29.034Z,2.43
2022-09-25T00:13:58.007Z,2.23
2022-09-25T00:16:27.933Z,2.20
2022-09-25T00:19:14.780Z,1.83
2022-09-25T00:21:44.899Z,1.80
2022-09-25T00:24:15.168Z,1.70
2022-09-25T00:26:44.794Z,1.70
2022-09-25T00:29:16.402Z,2.30
2022-09-25T00:31:45.034Z,1.90
2022-09-25T00:34:13.522Z,1.80
2022-09-25T00:36:42.181Z,1.73
2022-09-25T00:39:12.178Z,1.50
2022-09-25T00:41:40.632Z,1.50
2022-09-25T00:44:39.131Z,1.60
2022-09-25T00:47:07.723Z,1.40
2022-09-25T00:49:36.230Z,1.20
2022-09-25T00:52:06.535Z,1.40
2022-09-25T00:54:38.660Z,1.10
2022-09-25T00:57:08.612Z,1.30
2022-09-25T00:59:39.337Z,2.07
2022-09-25T01:02:08.227Z,1.40
2022-09-25T01:04:38.244Z,1.20
2022-09-25T01:07:09.214Z,1.20
2022-09-25T01:09:39.218Z,2.07
2022-09-25T01:12:09.523Z,1.30
2022-09-25T01:14:38.030Z,2.17
2022-09-25T01:17:09.335Z,1.20
2022-09-25T01:19:44.683Z,1.13
2022-09-25T01:22:17.771Z,1.13
2022-09-25T01:24:51.825Z,1.10
2022-09-25T01:27:41.465Z,1.10
2022-09-25T01:30:13.624Z,1.10
2022-09-25T01:32:49.568Z,1.10
2022-09-25T01:35:20.653Z,1.20
2022-09-25T01:37:55.518Z,1.23
2022-09-25T01:40:26.018Z,1.40
2022-09-25T01:42:56.370Z,1.20
2022-09-25T01:45:29.428Z,1.10
2022-09-25T01:47:59.798Z,1.30
2022-09-25T01:50:30.482Z,1.70
2022-09-25T01:52:59.867Z,1.70
2022-09-25T01:55:30.072Z,1.93
2022-09-25T01:58:00.966Z,1.80
2022-09-25T02:00:30.970Z,1.43
2022-09-25T02:03:01.182Z,1.53
2022-09-25T02:05:32.248Z,1.70
2022-09-25T02:08:03.209Z,1.50
2022-09-25T02:10:33.995Z,1.40
2022-09-25T02:13:08.746Z,1.40
2022-09-25T02:15:40.090Z,1.40
2022-09-25T02:18:28.167Z,1.40
2022-09-25T02:20:59.361Z,1.43
2022-09-25T02:23:30.981Z,1.40
2022-09-25T02:26:01.953Z,2.20
2022-09-25T02:28:30.541Z,2.00
2022-09-25T02:31:01.580Z,1.70
2022-09-25T02:33:30.283Z,2.20
2022-09-25T02:36:00.627Z,1.77
2022-09-25T02:38:29.819Z,3.07
2022-09-25T02:40:59.577Z,1.70
2022-09-25T02:43:34.290Z,2.20
2022-09-25T02:46:08.625Z,2.00
2022-09-25T02:48:41.290Z,1.70
2022-09-25T02:51:12.503Z,1.83
2022-09-25T02:53:43.366Z,1.60
2022-09-25T02:56:14.268Z,1.73
2022-09-25T02:58:44.016Z,1.60
2022-09-25T03:01:15.089Z,1.53
2022-09-25T03:03:44.174Z,1.60
2022-09-25T03:06:12.644Z,1.50
2022-09-25T03:08:42.847Z,1.70
2022-09-25T03:11:12.639Z,1.53
2022-09-25T03:13:41.718Z,1.87
2022-09-25T03:16:12.750Z,1.60
2022-09-25T03:18:42.910Z,1.77
2022-09-25T03:21:11.327Z,1.90
2022-09-25T03:23:39.803Z,2.00
2022-09-25T03:26:08.563Z,1.90
2022-09-25T03:28:37.288Z,2.60
2022-09-25T03:31:06.485Z,1.93
2022-09-25T03:33:36.146Z,2.03
2022-09-25T03:36:07.843Z,2.50
2022-09-25T03:38:36.330Z,2.70
2022-09-25T03:41:08.930Z,2.60
2022-09-25T03:43:37.615Z,2.30
2022-09-25T03:46:06.291Z,2.23
2022-09-25T03:48:35.207Z,2.10
2022-09-25T03:51:04.127Z,2.60
2022-09-25T03:53:34.486Z,2.67
2022-09-25T03:56:03.725Z,2.47
2022-09-25T03:58:32.403Z,2.87
2022-09-25T04:01:01.644Z,2.50
2022-09-25T04:03:32.940Z,2.47
2022-09-25T04:06:04.958Z,2.70
2022-09-25T04:08:35.706Z,2.53
2022-09-25T04:11:04.965Z,3.03
2022-09-25T04:13:34.438Z,2.53
2022-09-25T04:16:03.790Z,2.97
2022-09-25T04:18:32.956Z,2.97
2022-09-25T04:21:01.514Z,2.90
2022-09-25T04:23:30.112Z,2.80
2022-09-25T04:26:00.159Z,2.80
2022-09-25T04:28:31.226Z,3.00
2022-09-25T04:30:59.860Z,3.20
2022-09-25T04:33:46.047Z,3.30
2022-09-25T04:36:14.662Z,3.40
2022-09-25T04:38:44.009Z,5.60
2022-09-25T04:41:16.750Z,4.23
2022-09-25T04:43:45.376Z,3.20
2022-09-25T04:46:20.921Z,2.60
2022-09-25T04:48:50.528Z,2.83
2022-09-25T04:51:18.993Z,2.53
2022-09-25T04:53:47.451Z,2.70
2022-09-25T04:56:17.542Z,2.80
2022-09-25T04:58:46.984Z,2.90
2022-09-25T05:01:15.549Z,2.50
2022-09-25T05:03:44.293Z,2.87
2022-09-25T05:06:12.745Z,2.97
2022-09-25T05:08:41.184Z,2.93
2022-09-25T05:11:10.089Z,2.60
2022-09-25T05:13:40.061Z,2.73
2022-09-25T05:16:08.857Z,2.57
2022-09-25T05:18:37.654Z,3.30
2022-09-25T05:21:06.862Z,2.80
2022-09-25T05:23:35.284Z,3.17
2022-09-25T05:26:03.984Z,3.13
2022-09-25T05:28:32.501Z,3.53
2022-09-25T05:31:03.538Z,3.10
2022-09-25T05:33:32.642Z,2.97
2022-09-25T05:36:02.851Z,3.80
2022-09-25T05:38:31.343Z,3.50
2022-09-25T05:41:04.570Z,3.33
2022-09-25T05:43:33.075Z,3.50
2022-09-25T05:46:03.209Z,3.20
2022-09-25T05:48:31.769Z,3.87
2022-09-25T05:51:00.583Z,3.23
2022-09-25T05:53:30.638Z,3.20
2022-09-25T05:56:00.161Z,3.23
2022-09-25T05:58:28.975Z,3.60
2022-09-25T06:00:57.722Z,3.60
2022-09-25T06:03:29.821Z,3.27
2022-09-25T06:05:58.366Z,3.40
2022-09-25T06:08:26.953Z,3.37
2022-09-25T06:10:55.891Z,3.17
2022-09-25T06:13:25.425Z,3.10
2022-09-25T06:15:54.322Z,2.97
2022-09-25T06:18:24.058Z,2.80
2022-09-25T06:20:54.155Z,2.77
2022-09-25T06:23:22.686Z,3.10
2022-09-25T06:25:51.305Z,3.07
2022-09-25T06:28:19.718Z,2.87
2022-09-25T06:30:48.331Z,3.60
2022-09-25T06:33:16.987Z,3.10
2022-09-25T06:35:46.349Z,3.13
2022-09-25T06:38:16.841Z,3.00
2022-09-25T06:40:45.609Z,2.90
2022-09-25T06:43:15.445Z,2.67
2022-09-25T06:45:44.388Z,2.37
2022-09-25T06:48:14.213Z,2.60
2022-09-25T06:50:43.755Z,1.90
2022-09-25T06:53:12.891Z,2.30
2022-09-25T06:55:45.376Z,2.53
2022-09-25T06:58:15.082Z,2.57
2022-09-25T07:00:43.540Z,2.00
2022-09-25T07:03:29.765Z,2.20
2022-09-25T07:05:59.529Z,2.27
2022-09-25T07:08:28.359Z,2.03
2022-09-25T07:10:58.978Z,2.00
2022-09-25T07:13:28.900Z,2.17
2022-09-25T07:15:58.325Z,1.77
2022-09-25T07:18:27.561Z,1.63
2022-09-25T07:21:00.978Z,1.70
2022-09-25T07:23:31.304Z,1.80
2022-09-25T07:26:05.167Z,1.90
2022-09-25T07:28:33.840Z,1.80
2022-09-25T07:31:11.765Z,1.57
2022-09-25T07:33:40.463Z,1.60
2022-09-25T07:36:09.501Z,1.73
2022-09-25T07:38:38.334Z,1.93
2022-09-25T07:41:09.166Z,1.80
2022-09-25T07:43:38.507Z,1.90
2022-09-25T07:46:07.091Z,1.80
2022-09-25T07:48:35.756Z,1.50
2022-09-25T07:51:04.307Z,1.60
2022-09-25T07:53:32.799Z,1.30
2022-09-25T07:56:06.165Z,1.57
2022-09-25T07:58:37.303Z,1.43
2022-09-25T08:01:06.807Z,1.40
2022-09-25T08:03:35.547Z,1.57
2022-09-25T08:06:04.926Z,1.10
2022-09-25T08:08:35.025Z,1.20
2022-09-25T08:11:03.870Z,1.30
2022-09-25T08:13:33.705Z,1.20
2022-09-25T08:16:05.209Z,1.33
2022-09-25T08:18:33.927Z,1.30
2022-09-25T08:21:03.753Z,1.47
2022-09-25T08:23:32.679Z,1.60
2022-09-25T08:26:01.585Z,1.37
2022-09-25T08:28:30.428Z,1.57
2022-09-25T08:31:00.384Z,1.43
2022-09-25T08:33:30.280Z,1.50
2022-09-25T08:35:59.457Z,1.73
2022-09-25T08:38:28.642Z,1.40
2022-09-25T08:40:58.158Z,1.50
2022-09-25T08:43:27.907Z,1.40
2022-09-25T08:46:15.227Z,1.50
2022-09-25T08:49:06.322Z,1.10
2022-09-25T08:51:35.850Z,0.70
2022-09-25T08:54:05.229Z,0.60
2022-09-25T08:56:35.811Z,1.30
2022-09-25T08:59:06.218Z,1.40
2022-09-25T09:01:41.597Z,1.10
2022-09-25T09:04:16.297Z,1.37
2022-09-25T09:06:49.817Z,1.10
2022-09-25T09:09:29.369Z,1.50
2022-09-25T09:12:00.814Z,1.60
2022-09-25T09:14:31.354Z,1.53
2022-09-25T09:17:01.500Z,1.70
2022-09-25T09:19:31.357Z,1.70
2022-09-25T09:22:02.570Z,1.70
2022-09-25T09:24:37.047Z,1.37
2022-09-25T09:27:12.906Z,2.00
2022-09-25T09:30:04.493Z,2.07
2022-09-25T09:32:42.259Z,2.50
2022-09-25T09:35:17.101Z,2.50
2022-09-25T09:37:50.170Z,2.57
2022-09-25T09:40:37.234Z,2.10
2022-09-25T09:43:07.933Z,2.30
2022-09-25T09:45:42.188Z,2.17
2022-09-25T09:48:14.487Z,2.60
2022-09-25T09:50:52.373Z,2.63
2022-09-25T09:53:34.561Z,2.33
2022-09-25T09:56:08.457Z,2.43
2022-09-25T09:58:41.146Z,3.00
2022-09-25T10:01:29.116Z,3.27
2022-09-25T10:04:04.383Z,2.73
2022-09-25T10:06:36.258Z,3.30
2022-09-25T10:09:05.091Z,3.17
2022-09-25T10:11:33.922Z,3.10
2022-09-25T10:14:05.383Z,3.37
2022-09-25T10:16:34.909Z,3.30
2022-09-25T10:19:06.949Z,3.30
2022-09-25T10:21:40.552Z,3.70
2022-09-25T10:24:09.146Z,3.33
2022-09-25T10:26:38.270Z,3.57
2022-09-25T10:29:07.928Z,3.17
2022-09-25T10:31:38.255Z,2.87
2022-09-25T10:34:08.180Z,3.30
2022-09-25T10:36:47.640Z,3.73
2022-09-25T10:39:44.093Z,3.10
2022-09-25T10:42:27.842Z,3.43
2022-09-25T10:44:58.357Z,3.63
2022-09-25T10:47:50.887Z,3.60
2022-09-25T10:50:21.256Z,10.47
2022-09-25T10:52:53.045Z,8.67
2022-09-25T10:55:25.383Z,8.50
2022-09-25T10:57:56.520Z,6.07
2022-09-25T11:00:25.744Z,4.80
2022-09-25T11:02:56.532Z,4.23
2022-09-25T11:05:28.333Z,4.13
2022-09-25T11:07:59.376Z,4.70
2022-09-25T11:10:28.585Z,3.97
2022-09-25T11:12:57.986Z,3.30
2022-09-25T11:15:27.832Z,3.40
2022-09-25T11:17:57.475Z,3.17
2022-09-25T11:20:30.881Z,3.10
2022-09-25T11:23:04.774Z,3.00
2022-09-25T11:25:36.231Z,3.17
2022-09-25T11:28:06.959Z,3.57
2022-09-25T11:30:46.805Z,3.30
2022-09-25T11:33:23.193Z,2.97
2022-09-25T11:35:54.673Z,3.00
2022-09-25T11:38:44.406Z,2.83
2022-09-25T11:41:23.250Z,2.70
2022-09-25T11:43:58.360Z,2.70
2022-09-25T11:46:30.861Z,2.53
2022-09-25T11:49:09.980Z,2.83
2022-09-25T11:51:56.151Z,2.37
2022-09-25T11:54:34.589Z,2.30
2022-09-25T11:57:05.992Z,2.37
2022-09-25T11:59:41.859Z,2.57
2022-09-25T12:02:17.488Z,2.33
2022-09-25T12:04:55.770Z,2.47
2022-09-25T12:07:40.064Z,2.17
2022-09-25T12:10:20.266Z,1.83
2022-09-25T12:12:53.947Z,1.90
2022-09-25T12:15:26.218Z,2.10
2022-09-25T12:17:58.265Z,1.80
2022-09-25T12:20:29.862Z,1.80
2022-09-25T12:23:03.833Z,1.70
2022-09-25T12:25:39.346Z,1.63
2022-09-25T12:28:12.319Z,1.47
2022-09-25T12:30:45.309Z,2.00
2022-09-25T12:33:19.763Z,1.40
2022-09-25T12:35:51.919Z,1.40
2022-09-25T12:38:26.795Z,1.40
2022-09-25T12:40:59.075Z,1.23
2022-09-25T12:43:30.768Z,1.40
2022-09-25T12:46:02.006Z,1.50
2022-09-25T12:48:33.789Z,1.30
2022-09-25T12:51:05.735Z,1.20
2022-09-25T12:53:38.167Z,1.40
2022-09-25T12:56:16.687Z,1.10
2022-09-25T12:58:58.879Z,1.00
2022-09-25T13:01:29.722Z,1.10
2022-09-25T13:04:05.101Z,1.00
2022-09-25T13:06:38.027Z,1.20
2022-09-25T13:09:14.365Z,0.97
2022-09-25T13:11:46.210Z,1.00
2022-09-25T13:14:19.187Z,1.40
2022-09-25T13:16:48.843Z,0.80
2022-09-25T13:19:26.484Z,0.90
2022-09-25T13:22:00.790Z,0.93
2022-09-25T13:24:29.571Z,1.00
2022-09-25T13:27:04.753Z,1.20
2022-09-25T13:29:35.662Z,1.07
2022-09-25T13:32:05.301Z,0.90
2022-09-25T13:34:36.343Z,0.90
2022-09-25T13:37:06.362Z,0.97
2022-09-25T13:39:53.273Z,1.37
2022-09-25T13:42:25.545Z,1.00
2022-09-25T13:45:13.968Z,1.00
2022-09-25T13:48:06.069Z,1.10
2022-09-25T13:50:37.574Z,0.80
2022-09-25T13:53:23.778Z,0.90
2022-09-25T13:56:14.951Z,0.90
2022-09-25T13:59:16.523Z,0.80
2022-09-25T14:01:47.373Z,0.70
2022-09-25T14:04:21.870Z,0.80
2022-09-25T14:06:52.706Z,0.67
2022-09-25T14:09:22.826Z,0.83
2022-09-25T14:11:53.991Z,0.60
2022-09-25T14:14:26.305Z,0.60
2022-09-25T14:16:58.602Z,0.60
2022-09-25T14:19:28.654Z,0.60
2022-09-25T14:21:57.571Z,1.80
2022-09-25T14:24:29.178Z,1.45
2022-09-25T14:26:59.712Z,1.50
2022-09-25T14:29:29.091Z,1.10
2022-09-25T14:32:06.598Z,0.80
2022-09-25T14:34:41.199Z,0.60
2022-09-25T14:37:17.852Z,0.60
2022-09-25T14:39:49.252Z,0.70
2022-09-25T14:42:25.223Z,0.40
2022-09-25T14:45:09.742Z,0.80
2022-09-25T14:47:40.473Z,0.80
2022-09-25T14:50:17.267Z,0.70
2022-09-25T14:52:45.861Z,0.43
2022-09-25T14:55:21.658Z,0.60
2022-09-25T14:57:50.765Z,0.60
2022-09-25T15:00:21.135Z,0.70
2022-09-25T15:02:51.644Z,0.45
2022-09-25T15:05:21.206Z,0.50
2022-09-25T15:07:50.006Z,0.30
2022-09-25T15:10:27.870Z,0.47
2022-09-25T15:12:56.571Z,0.60
2022-09-25T15:15:25.026Z,0.40
2022-09-25T15:17:58.029Z,0.50
2022-09-25T15:20:28.471Z,0.50
2022-09-25T15:22:57.963Z,0.50
2022-09-25T15:25:28.882Z,0.80
2022-09-25T15:27:58.795Z,0.70
2022-09-25T15:30:28.070Z,0.60
2022-09-25T15:33:01.046Z,0.50
2022-09-25T15:35:32.691Z,0.40
2022-09-25T15:38:05.707Z,0.20
2022-09-25T15:40:34.895Z,0.50
2022-09-25T15:43:03.874Z,0.23
2022-09-25T15:45:40.219Z,0.30
2022-09-25T15:48:15.981Z,0.23
2022-09-25T15:50:45.438Z,0.30
2022-09-25T15:53:20.181Z,0.20
2022-09-25T15:55:48.907Z,0.20
2022-09-25T15:58:17.823Z,0.30
2022-09-25T16:01:14.472Z,0.30
2022-09-25T16:04:07.294Z,0.20
2022-09-25T16:06:43.005Z,0.30
2022-09-25T16:09:12.755Z,0.50
2022-09-25T16:11:41.230Z,0.80
2022-09-25T16:14:22.221Z,0.40
2022-09-25T16:16:51.439Z,0.50
2022-09-25T16:19:30.250Z,0.20
2022-09-25T16:22:00.258Z,0.20
2022-09-25T16:24:29.881Z,0.47
2022-09-25T16:27:00.172Z,1.43
2022-09-25T16:29:29.333Z,0.57
2022-09-25T16:32:02.873Z,0.40
2022-09-25T16:34:34.757Z,0.20
2022-09-25T16:37:04.509Z,0.30
2022-09-25T16:39:36.218Z,0.30
2022-09-25T16:42:23.208Z,0.57
2022-09-25T16:45:03.578Z,0.30
2022-09-25T16:47:34.412Z,0.40
2022-09-25T16:50:04.715Z,0.40
2022-09-25T16:52:33.710Z,0.20
2022-09-25T16:55:02.259Z,0.37
2022-09-25T16:57:32.339Z,0.40
2022-09-25T17:00:01.174Z,0.20
2022-09-25T17:02:37.267Z,0.23
2022-09-25T17:05:09.023Z,0.23
2022-09-25T17:07:37.671Z,0.30
2022-09-25T17:10:06.444Z,0.40
2022-09-25T17:12:35.567Z,0.30
2022-09-25T17:15:04.127Z,0.37
2022-09-25T17:17:32.614Z,0.70
2022-09-25T17:20:01.254Z,0.50
2022-09-25T17:22:33.422Z,0.40
2022-09-25T17:25:03.870Z,0.50
2022-09-25T17:27:32.481Z,0.40
2022-09-25T17:30:01.347Z,0.80
2022-09-25T17:32:31.453Z,0.47
2022-09-25T17:35:02.588Z,0.40
2022-09-25T17:37:32.501Z,0.40
2022-09-25T17:40:00.930Z,0.40
2022-09-25T17:42:31.333Z,0.30
2022-09-25T17:44:59.856Z,0.40
2022-09-25T17:47:28.353Z,0.40
2022-09-25T17:49:57.730Z,0.40
2022-09-25T17:52:26.464Z,0.30
2022-09-25T17:54:56.295Z,0.40
2022-09-25T17:57:27.876Z,0.50
2022-09-25T17:59:56.633Z,0.60
2022-09-25T18:02:29.185Z,0.70
2022-09-25T18:04:57.841Z,0.70
2022-09-25T18:07:31.241Z,0.60
2022-09-25T18:10:03.426Z,0.50
2022-09-25T18:12:31.858Z,0.60
2022-09-25T18:15:00.483Z,0.60
2022-09-25T18:17:29.139Z,0.80
2022-09-25T18:20:20.529Z,0.60
2022-09-25T18:22:49.191Z,0.67
2022-09-25T18:25:19.031Z,0.60
2022-09-25T18:27:47.477Z,0.70
2022-09-25T18:30:17.327Z,0.77
2022-09-25T18:32:46.026Z,0.40
2022-09-25T18:35:15.774Z,0.60
2022-09-25T18:37:44.482Z,0.80
2022-09-25T18:40:13.973Z,0.73
2022-09-25T18:42:43.977Z,0.73
2022-09-25T18:45:13.415Z,0.63
2022-09-25T18:47:42.418Z,0.77
2022-09-25T18:50:12.309Z,0.60
2022-09-25T18:52:43.561Z,0.70
2022-09-25T18:55:12.444Z,0.50
2022-09-25T18:57:41.029Z,0.80
2022-09-25T19:00:11.834Z,0.57
2022-09-25T19:02:41.541Z,0.70
2022-09-25T19:05:10.323Z,0.70
2022-09-25T19:07:38.988Z,0.93
2022-09-25T19:10:10.841Z,0.57
2022-09-25T19:12:39.501Z,0.53
2022-09-25T19:15:08.272Z,0.50
2022-09-25T19:17:38.357Z,0.50
2022-09-25T19:20:07.410Z,0.50
2022-09-25T19:22:35.935Z,0.37
2022-09-25T19:25:05.866Z,0.57
2022-09-25T19:27:34.505Z,0.57
2022-09-25T19:30:02.918Z,0.50
2022-09-25T19:32:31.495Z,0.50
2022-09-25T19:35:01.546Z,0.57
2022-09-25T19:37:30.029Z,0.47
2022-09-25T19:40:16.262Z,0.60
2022-09-25T19:42:46.000Z,0.63
2022-09-25T19:45:14.794Z,0.67
2022-09-25T19:47:43.302Z,0.73
2022-09-25T19:50:13.315Z,0.90
2022-09-25T19:52:41.742Z,0.50
2022-09-25T19:55:11.013Z,0.60
2022-09-25T19:57:41.915Z,0.50
2022-09-25T20:00:12.226Z,0.90
2022-09-25T20:02:40.746Z,0.60
2022-09-25T20:05:10.536Z,0.50
2022-09-25T20:07:40.451Z,0.60
2022-09-25T20:10:09.347Z,0.60
2022-09-25T20:12:37.806Z,0.60
2022-09-25T20:15:06.690Z,0.67
2022-09-25T20:17:35.199Z,0.77
2022-09-25T20:20:03.880Z,0.73
2022-09-25T20:22:32.702Z,0.60
2022-09-25T20:25:02.621Z,0.57
2022-09-25T20:27:31.042Z,0.60
2022-09-25T20:29:59.801Z,0.67
2022-09-25T20:32:28.351Z,0.70
2022-09-25T20:34:56.762Z,0.50
2022-09-25T20:37:25.329Z,0.50
2022-09-25T20:39:54.316Z,0.50
2022-09-25T20:42:24.134Z,0.60
2022-09-25T20:44:52.805Z,0.50
2022-09-25T20:47:21.772Z,0.60
2022-09-25T20:49:50.715Z,0.80
2022-09-25T20:52:19.267Z,0.70
2022-09-25T20:54:47.818Z,0.50
2022-09-25T20:57:16.250Z,0.60
2022-09-25T20:59:46.175Z,0.40
2022-09-25T21:02:14.754Z,0.60
2022-09-25T21:04:44.977Z,0.57
2022-09-25T21:07:16.948Z,0.53
2022-09-25T21:09:45.835Z,0.70
2022-09-25T21:12:14.910Z,0.60
2022-09-25T21:14:43.399Z,0.60
2022-09-25T21:17:13.490Z,0.67
2022-09-25T21:19:42.159Z,0.50
2022-09-25T21:22:10.576Z,0.60
2022-09-25T21:24:39.877Z,0.60
2022-09-25T21:27:08.428Z,0.50
2022-09-25T21:29:36.867Z,0.50
2022-09-25T21:32:05.503Z,0.53
2022-09-25T21:34:35.382Z,0.60
2022-09-25T21:37:03.813Z,0.70
2022-09-25T21:39:32.349Z,0.73
2022-09-25T21:42:04.939Z,0.50
2022-09-25T21:44:33.465Z,0.80
2022-09-25T21:47:01.989Z,0.60
2022-09-25T21:49:30.496Z,0.53
2022-09-25T21:52:01.434Z,0.50
2022-09-25T21:54:30.485Z,0.70
2022-09-25T21:56:59.035Z,0.60
2022-09-25T21:59:27.598Z,0.60
2022-09-25T22:01:56.025Z,0.40
2022-09-25T22:04:24.563Z,0.60
2022-09-25T22:06:53.727Z,0.60
2022-09-25T22:09:24.394Z,0.70
2022-09-25T22:11:53.518Z,0.70
2022-09-25T22:14:22.683Z,0.60
2022-09-25T22:16:52.515Z,0.57
2022-09-25T22:19:21.811Z,0.60
2022-09-25T22:21:51.190Z,0.60
2022-09-25T22:24:20.089Z,0.70
2022-09-25T22:26:51.709Z,0.50
2022-09-25T22:29:21.079Z,0.70
2022-09-25T22:31:49.758Z,0.40
2022-09-25T22:34:19.910Z,0.67
2022-09-25T22:36:48.992Z,0.50
2022-09-25T22:39:19.822Z,0.60
2022-09-25T22:41:52.619Z,0.50
2022-09-25T22:44:21.781Z,0.63
2022-09-25T22:46:50.449Z,0.60
2022-09-25T22:49:19.042Z,0.60
2022-09-25T22:51:47.712Z,0.53
2022-09-25T22:54:16.878Z,0.60
2022-09-25T22:56:45.553Z,0.70
2022-09-25T22:59:17.993Z,0.50
2022-09-25T23:01:48.154Z,0.60
2022-09-25T23:04:17.874Z,0.43
2022-09-25T23:06:48.857Z,1.60
2022-09-25T23:09:18.578Z,0.50
2022-09-25T23:11:47.438Z,0.50
2022-09-25T23:14:19.822Z,0.50
2022-09-25T23:16:49.387Z,0.77
2022-09-25T23:19:17.938Z,0.70
2022-09-25T23:21:46.643Z,0.50
2022-09-25T23:24:17.041Z,0.60
2022-09-25T23:26:45.951Z,0.70
2022-09-25T23:29:15.512Z,0.90
2022-09-25T23:31:45.547Z,0.70
2022-09-25T23:34:14.306Z,0.50
2022-09-25T23:36:43.332Z,0.90
2022-09-25T23:39:19.367Z,0.60
2022-09-25T23:41:50.413Z,0.80
2022-09-25T23:44:18.982Z,0.80
2022-09-25T23:46:51.174Z,0.70
2022-09-25T23:49:19.939Z,0.80
2022-09-25T23:51:48.377Z,0.50
2022-09-25T23:54:18.521Z,0.70
2022-09-25T23:56:47.019Z,0.90
2022-09-25T23:59:15.827Z,0.70
